createdAt,value
2023-03-11T00:01:47.763Z,79.14
2023-03-11T00:04:49.462Z,75.07
2023-03-11T00:07:51.552Z,72.09
2023-03-11T00:10:55.370Z,71.69
2023-03-11T00:13:58.453Z,70.15
2023-03-11T00:17:00.133Z,68.66
2023-03-11T00:20:01.920Z,69.49
2023-03-11T00:23:04.336Z,69.05
2023-03-11T00:26:06.041Z,69.07
2023-03-11T00:29:09.083Z,69.29
2023-03-11T00:32:10.745Z,69.37
2023-03-11T00:35:14.053Z,68.00
2023-03-11T00:38:17.234Z,67.91
2023-03-11T00:41:18.920Z,67.32
2023-03-11T00:44:22.502Z,68.09
2023-03-11T00:47:24.189Z,68.21
2023-03-11T00:50:27.907Z,68.02
2023-03-11T00:53:29.615Z,68.33
2023-03-11T00:56:31.295Z,67.91
2023-03-11T00:59:35.655Z,68.13
2023-03-11T01:02:37.553Z,67.92
2023-03-11T01:05:39.275Z,68.07
2023-03-11T01:08:41.456Z,67.43
2023-03-11T01:11:43.143Z,67.39
2023-03-11T01:14:46.287Z,67.77
2023-03-11T01:17:47.984Z,66.45
2023-03-11T01:20:50.498Z,65.89
2023-03-11T01:23:52.625Z,65.06
2023-03-11T01:26:54.291Z,64.16
2023-03-11T01:29:57.370Z,64.79
2023-03-11T01:32:59.083Z,63.66
2023-03-11T01:36:00.874Z,63.70
2023-03-11T01:39:02.617Z,63.12
2023-03-11T01:42:04.896Z,63.14
2023-03-11T01:45:39.082Z,62.25
2023-03-11T01:48:40.793Z,62.93
2023-03-11T01:51:45.889Z,62.78
2023-03-11T01:54:48.489Z,62.55
2023-03-11T01:57:53.596Z,62.52
2023-03-11T02:00:57.421Z,63.36
2023-03-11T02:04:02.702Z,63.02
2023-03-11T02:07:07.100Z,63.66
2023-03-11T02:10:11.093Z,64.59
2023-03-11T02:13:12.944Z,65.10
2023-03-11T02:16:16.441Z,65.54
2023-03-11T02:19:28.577Z,64.58
2023-03-11T02:22:31.631Z,65.07
2023-03-11T02:25:39.422Z,64.26
2023-03-11T02:28:43.530Z,63.49
2023-03-11T02:31:46.981Z,63.02
2023-03-11T02:34:48.762Z,62.37
2023-03-11T02:37:52.048Z,62.37
2023-03-11T02:40:56.491Z,60.72
2023-03-11T02:44:00.427Z,60.60
2023-03-11T02:47:02.597Z,60.01
2023-03-11T02:50:05.742Z,60.10
2023-03-11T02:53:08.015Z,60.10
2023-03-11T02:56:09.763Z,58.36
2023-03-11T02:59:12.888Z,57.32
2023-03-11T03:02:14.703Z,57.04
2023-03-11T03:05:16.412Z,56.83
2023-03-11T03:08:18.122Z,56.17
2023-03-11T03:11:19.862Z,56.30
2023-03-11T03:14:22.979Z,55.15
2023-03-11T03:17:24.847Z,55.31
2023-03-11T03:20:26.694Z,54.35
2023-03-11T03:23:28.419Z,54.62
2023-03-11T03:26:30.134Z,54.99
2023-03-11T03:29:33.183Z,55.47
2023-03-11T03:32:35.164Z,55.40
2023-03-11T03:35:42.191Z,55.40
2023-03-11T03:38:44.157Z,54.96
2023-03-11T03:41:45.845Z,54.75
2023-03-11T03:44:48.928Z,55.17
2023-03-11T03:47:50.617Z,54.43
2023-03-11T03:50:52.505Z,55.05
2023-03-11T03:53:54.217Z,54.80
2023-03-11T03:56:55.871Z,55.65
2023-03-11T03:59:58.956Z,52.39
2023-03-11T04:03:00.920Z,51.20
2023-03-11T04:06:06.924Z,51.46
2023-03-11T04:09:11.048Z,50.05
2023-03-11T04:12:14.779Z,48.46
2023-03-11T04:15:18.069Z,46.94
2023-03-11T04:18:19.815Z,47.85
2023-03-11T04:21:21.964Z,48.12
2023-03-11T04:24:23.678Z,48.69
2023-03-11T04:27:25.500Z,49.29
2023-03-11T04:30:28.567Z,48.74
2023-03-11T04:33:30.306Z,47.66
2023-03-11T04:36:32.001Z,48.13
2023-03-11T04:39:34.028Z,47.96
2023-03-11T04:42:35.984Z,46.53
2023-03-11T04:45:40.427Z,46.28
2023-03-11T04:48:42.185Z,47.12
2023-03-11T04:51:43.974Z,47.58
2023-03-11T04:54:45.877Z,48.06
2023-03-11T04:57:47.844Z,48.16
2023-03-11T05:00:52.322Z,46.99
2023-03-11T05:03:54.089Z,47.59
2023-03-11T05:06:56.017Z,45.87
2023-03-11T05:09:57.676Z,45.08
2023-03-11T05:12:59.719Z,44.83
2023-03-11T05:16:03.108Z,39.71
2023-03-11T05:19:04.975Z,38.45
2023-03-11T05:22:07.596Z,39.76
2023-03-11T05:25:09.856Z,40.32
2023-03-11T05:28:11.540Z,41.32
2023-03-11T05:31:14.623Z,41.55
2023-03-11T05:34:17.310Z,42.44
2023-03-11T05:37:19.270Z,43.12
2023-03-11T05:40:21.680Z,44.73
2023-03-11T05:43:23.387Z,44.69
2023-03-11T05:46:26.668Z,45.18
2023-03-11T05:49:28.599Z,45.18
2023-03-11T05:52:30.501Z,45.64
2023-03-11T05:55:32.287Z,44.29
2023-03-11T05:58:34.133Z,44.88
2023-03-11T06:01:37.289Z,44.14
2023-03-11T06:04:39.083Z,42.10
2023-03-11T06:07:40.863Z,41.87
2023-03-11T06:10:43.123Z,42.71
2023-03-11T06:13:44.894Z,43.20
2023-03-11T06:16:47.999Z,42.50
2023-03-11T06:19:49.664Z,42.85
2023-03-11T06:22:51.572Z,43.46
2023-03-11T06:25:56.981Z,43.97
2023-03-11T06:28:58.702Z,43.38
2023-03-11T06:32:02.043Z,43.11
2023-03-11T06:35:04.289Z,43.55
2023-03-11T06:38:05.982Z,42.42
2023-03-11T06:41:08.096Z,44.33
2023-03-11T06:44:10.224Z,43.75
2023-03-11T06:47:13.648Z,44.63
2023-03-11T06:50:16.116Z,43.10
2023-03-11T06:53:18.087Z,44.20
2023-03-11T06:56:20.637Z,43.47
2023-03-11T06:59:22.353Z,42.43
2023-03-11T07:02:25.410Z,42.68
2023-03-11T07:05:27.104Z,41.79
2023-03-11T07:08:29.196Z,42.73
2023-03-11T07:11:30.976Z,41.76
2023-03-11T07:14:32.713Z,42.46
2023-03-11T07:17:35.803Z,41.66
2023-03-11T07:20:37.515Z,42.48
2023-03-11T07:23:39.389Z,43.40
2023-03-11T07:26:43.776Z,41.51
2023-03-11T07:29:46.136Z,42.10
2023-03-11T07:32:49.646Z,41.80
2023-03-11T07:35:51.539Z,41.07
2023-03-11T07:38:56.168Z,41.79
2023-03-11T07:41:57.864Z,42.09
2023-03-11T07:44:59.551Z,41.17
2023-03-11T07:48:03.590Z,41.82
2023-03-11T07:51:07.131Z,41.47
2023-03-11T07:54:11.113Z,42.07
2023-03-11T07:57:12.586Z,41.99
2023-03-11T08:00:15.888Z,41.34
2023-03-11T08:03:19.064Z,42.41
2023-03-11T08:06:23.611Z,42.39
2023-03-11T08:09:25.311Z,41.90
2023-03-11T08:12:26.990Z,42.09
2023-03-11T08:15:28.840Z,41.91
2023-03-11T08:18:32.117Z,41.88
2023-03-11T08:21:33.918Z,42.45
2023-03-11T08:24:35.665Z,43.09
2023-03-11T08:27:37.484Z,40.72
2023-03-11T08:30:41.606Z,41.41
2023-03-11T08:33:46.673Z,41.94
2023-03-11T08:36:48.628Z,40.76
2023-03-11T08:39:50.371Z,41.26
2023-03-11T08:42:52.316Z,40.77
2023-03-11T08:45:54.007Z,40.12
2023-03-11T08:49:00.792Z,40.35
2023-03-11T08:52:03.025Z,40.15
2023-03-11T08:55:06.086Z,39.95
2023-03-11T08:58:07.783Z,39.87
2023-03-11T09:01:10.855Z,40.10
2023-03-11T09:04:14.025Z,40.97
2023-03-11T09:07:15.908Z,40.68
2023-03-11T09:10:18.170Z,40.89
2023-03-11T09:13:20.114Z,40.51
2023-03-11T09:16:23.184Z,39.92
2023-03-11T09:19:26.314Z,41.32
2023-03-11T09:22:28.469Z,40.57
2023-03-11T09:25:30.270Z,41.01
2023-03-11T09:28:32.057Z,40.03
2023-03-11T09:31:33.902Z,40.50
2023-03-11T09:34:37.028Z,40.06
2023-03-11T09:37:38.706Z,40.25
2023-03-11T09:40:51.493Z,38.45
2023-03-11T09:44:08.168Z,39.98
2023-03-11T09:47:25.879Z,39.75
2023-03-11T09:50:32.705Z,39.53
2023-03-11T09:53:38.665Z,39.87
2023-03-11T09:56:44.463Z,40.53
2023-03-11T09:59:47.394Z,39.28
2023-03-11T10:02:49.845Z,38.68
2023-03-11T10:05:58.428Z,38.89
2023-03-11T10:09:07.042Z,39.77
2023-03-11T10:12:20.150Z,40.34
2023-03-11T10:15:31.151Z,40.43
2023-03-11T10:18:45.288Z,39.32
2023-03-11T10:21:56.945Z,39.74
2023-03-11T10:25:05.550Z,38.31
2023-03-11T10:28:13.485Z,40.25
2023-03-11T10:31:24.908Z,39.05
2023-03-11T10:34:32.877Z,39.26
2023-03-11T10:37:49.159Z,39.33
2023-03-11T10:40:56.310Z,40.61
2023-03-11T10:44:04.039Z,39.70
2023-03-11T10:47:06.838Z,40.09
2023-03-11T10:50:15.571Z,39.99
2023-03-11T10:53:19.916Z,41.07
2023-03-11T10:56:28.635Z,41.54
2023-03-11T10:59:32.570Z,42.68
2023-03-11T11:02:38.372Z,43.14
2023-03-11T11:05:40.936Z,42.72
2023-03-11T11:08:45.873Z,42.73
2023-03-11T11:12:01.719Z,43.53
2023-03-11T11:15:04.187Z,43.13
2023-03-11T11:18:15.495Z,43.18
2023-03-11T11:21:28.916Z,43.62
2023-03-11T11:24:32.515Z,44.45
2023-03-11T11:27:34.315Z,44.42
2023-03-11T11:30:36.104Z,44.18
2023-03-11T11:33:48.055Z,43.00
2023-03-11T11:36:50.447Z,43.49
2023-03-11T11:39:58.284Z,43.69
2023-03-11T11:43:04.788Z,43.75
2023-03-11T11:46:15.713Z,43.19
2023-03-11T11:49:21.448Z,43.46
2023-03-11T11:52:27.389Z,42.68
2023-03-11T11:55:31.714Z,42.96
2023-03-11T11:58:34.806Z,43.27
2023-03-11T12:01:44.921Z,43.06
2023-03-11T12:04:51.747Z,42.88
2023-03-11T12:08:11.933Z,40.85
2023-03-11T12:11:20.850Z,40.92
2023-03-11T12:14:29.378Z,40.85
2023-03-11T12:17:32.630Z,41.11
2023-03-11T12:20:41.472Z,40.99
2023-03-11T12:23:58.636Z,41.00
2023-03-11T12:27:06.149Z,40.35
2023-03-11T12:30:15.123Z,41.15
2023-03-11T12:33:25.180Z,40.50
2023-03-11T12:36:30.357Z,41.18
2023-03-11T12:39:33.950Z,40.57
2023-03-11T12:42:40.316Z,40.91
2023-03-11T12:45:50.185Z,40.52
2023-03-11T12:49:12.253Z,39.37
2023-03-11T12:52:26.546Z,39.82
2023-03-11T12:55:34.753Z,39.04
2023-03-11T12:58:52.901Z,39.13
2023-03-11T13:02:03.390Z,39.67
2023-03-11T13:05:17.898Z,39.69
2023-03-11T13:08:22.092Z,39.96
2023-03-11T13:11:35.917Z,40.17
2023-03-11T13:14:39.224Z,39.56
2023-03-11T13:17:41.308Z,40.61
2023-03-11T13:20:46.264Z,40.64
2023-03-11T13:23:48.599Z,40.88
2023-03-11T13:26:54.419Z,41.19
2023-03-11T13:30:06.160Z,40.17
2023-03-11T13:33:21.970Z,40.58
2023-03-11T13:36:42.153Z,41.66
2023-03-11T13:39:53.956Z,41.19
2023-03-11T13:43:02.839Z,40.63
2023-03-11T13:46:12.570Z,40.33
2023-03-11T13:49:26.453Z,40.57
2023-03-11T13:52:33.142Z,40.22
2023-03-11T13:55:38.500Z,40.72
2023-03-11T13:58:40.436Z,40.29
2023-03-11T14:01:50.637Z,41.15
2023-03-11T14:04:56.173Z,41.17
2023-03-11T14:08:12.351Z,41.19
2023-03-11T14:11:16.740Z,40.66
2023-03-11T14:14:40.547Z,41.30
2023-03-11T14:17:43.604Z,40.37
2023-03-11T14:20:48.581Z,41.12
2023-03-11T14:23:53.201Z,41.09
2023-03-11T14:26:58.346Z,42.17
2023-03-11T14:30:00.478Z,41.36
2023-03-11T14:33:06.516Z,41.11
2023-03-11T14:36:14.091Z,41.74
2023-03-11T14:39:28.024Z,42.12
2023-03-11T14:42:36.253Z,41.54
2023-03-11T14:45:40.709Z,41.13
2023-03-11T14:48:44.082Z,41.49
2023-03-11T14:51:47.461Z,41.62
2023-03-11T14:54:51.958Z,41.96
2023-03-11T14:57:57.652Z,42.07
2023-03-11T15:01:04.251Z,42.03
2023-03-11T15:04:12.166Z,42.03
2023-03-11T15:07:14.253Z,41.84
2023-03-11T15:10:15.981Z,41.66
2023-03-11T15:13:18.065Z,42.71
2023-03-11T15:16:26.182Z,43.05
2023-03-11T15:19:33.513Z,43.56
2023-03-11T15:22:39.042Z,43.62
2023-03-11T15:25:48.966Z,43.30
2023-03-11T15:28:56.008Z,43.14
2023-03-11T15:31:58.046Z,42.72
2023-03-11T15:35:02.882Z,43.82
2023-03-11T15:38:21.278Z,44.03
2023-03-11T15:41:23.498Z,43.09
2023-03-11T15:44:29.902Z,43.44
2023-03-11T15:47:32.053Z,42.77
2023-03-11T15:50:52.242Z,43.44
2023-03-11T15:53:54.492Z,43.73
2023-03-11T15:56:58.909Z,44.00
2023-03-11T16:00:04.471Z,43.64
2023-03-11T16:03:06.828Z,43.08
2023-03-11T16:06:10.804Z,43.28
2023-03-11T16:09:13.056Z,43.17
2023-03-11T16:12:17.421Z,43.71
2023-03-11T16:15:22.724Z,43.63
2023-03-11T16:18:24.742Z,43.00
2023-03-11T16:21:35.370Z,43.16
2023-03-11T16:24:37.884Z,43.63
2023-03-11T16:27:40.152Z,43.14
2023-03-11T16:30:42.656Z,42.95
2023-03-11T16:33:45.461Z,43.62
2023-03-11T16:36:49.163Z,42.66
2023-03-11T16:39:51.912Z,42.76
2023-03-11T16:42:56.950Z,43.17
2023-03-11T16:45:58.911Z,43.45
2023-03-11T16:49:00.774Z,43.23
2023-03-11T16:52:04.655Z,43.38
2023-03-11T16:55:07.435Z,43.34
2023-03-11T16:58:09.499Z,43.98
2023-03-11T17:01:12.034Z,42.86
2023-03-11T17:04:14.363Z,42.54
2023-03-11T17:07:18.332Z,42.47
2023-03-11T17:10:21.095Z,42.64
2023-03-11T17:13:23.228Z,42.18
2023-03-11T17:16:26.018Z,42.60
2023-03-11T17:19:30.658Z,43.04
2023-03-11T17:22:34.079Z,42.87
2023-03-11T17:25:41.996Z,42.89
2023-03-11T17:28:44.762Z,43.72
2023-03-11T17:31:46.477Z,43.48
2023-03-11T17:34:49.439Z,44.12
2023-03-11T17:37:53.223Z,44.30
2023-03-11T17:40:55.652Z,44.23
2023-03-11T17:43:58.406Z,44.61
2023-03-11T17:47:00.931Z,44.99
2023-03-11T17:50:04.624Z,44.93
2023-03-11T17:53:09.111Z,45.65
2023-03-11T17:56:13.437Z,45.77
2023-03-11T17:59:18.056Z,45.07
2023-03-11T18:02:21.163Z,45.61
2023-03-11T18:05:23.962Z,45.40
2023-03-11T18:08:29.434Z,46.13
2023-03-11T18:11:32.561Z,46.44
2023-03-11T18:14:36.880Z,46.48
2023-03-11T18:17:41.036Z,46.72
2023-03-11T18:20:43.092Z,46.50
2023-03-11T18:23:47.353Z,46.54
2023-03-11T18:26:50.456Z,46.71
2023-03-11T18:29:53.320Z,46.38
2023-03-11T18:32:56.072Z,46.09
2023-03-11T18:35:59.192Z,46.75
2023-03-11T18:39:05.445Z,46.89
2023-03-11T18:42:08.604Z,47.61
2023-03-11T18:45:11.927Z,47.41
2023-03-11T18:48:14.863Z,47.48
2023-03-11T18:51:18.012Z,48.35
2023-03-11T18:54:22.330Z,48.23
2023-03-11T18:57:24.871Z,48.30
2023-03-11T19:00:30.556Z,48.55
2023-03-11T19:03:32.955Z,48.97
2023-03-11T19:06:35.674Z,48.92
2023-03-11T19:09:41.188Z,48.87
2023-03-11T19:12:44.825Z,49.19
2023-03-11T19:15:47.756Z,49.63
2023-03-11T19:18:49.969Z,48.88
2023-03-11T19:21:52.337Z,49.17
2023-03-11T19:24:57.263Z,49.62
2023-03-11T19:27:59.786Z,50.33
2023-03-11T19:31:04.559Z,49.73
2023-03-11T19:34:07.076Z,50.42
2023-03-11T19:37:09.629Z,50.45
2023-03-11T19:40:15.396Z,50.71
2023-03-11T19:43:18.930Z,50.57
2023-03-11T19:46:23.060Z,50.87
2023-03-11T19:49:25.620Z,51.20
2023-03-11T19:52:28.253Z,51.83
2023-03-11T19:55:32.716Z,51.86
2023-03-11T19:58:35.926Z,52.22
2023-03-11T20:01:38.546Z,52.34
2023-03-11T20:04:43.153Z,52.65
2023-03-11T20:07:46.246Z,51.96
2023-03-11T20:10:52.301Z,52.24
2023-03-11T20:13:54.786Z,52.66
2023-03-11T20:16:57.963Z,52.69
2023-03-11T20:20:00.445Z,52.42
2023-03-11T20:23:03.473Z,52.57
2023-03-11T20:26:09.240Z,52.66
2023-03-11T20:29:11.968Z,52.77
2023-03-11T20:32:15.012Z,53.19
2023-03-11T20:35:19.171Z,53.20
2023-03-11T20:38:21.668Z,52.99
2023-03-11T20:41:26.948Z,53.98
2023-03-11T20:44:29.557Z,53.68
2023-03-11T20:47:32.174Z,53.92
2023-03-11T20:50:35.095Z,53.54
2023-03-11T20:53:37.782Z,53.25
2023-03-11T20:56:41.744Z,53.13
2023-03-11T20:59:43.791Z,53.49
2023-03-11T21:02:46.638Z,52.88
2023-03-11T21:05:49.057Z,53.03
2023-03-11T21:08:53.231Z,53.48
2023-03-11T21:11:56.719Z,53.97
2023-03-11T21:15:02.248Z,53.92
2023-03-11T21:18:05.420Z,54.68
2023-03-11T21:21:07.616Z,54.89
2023-03-11T21:24:10.638Z,54.27
2023-03-11T21:27:14.355Z,54.90
2023-03-11T21:30:16.507Z,54.63
2023-03-11T21:33:18.942Z,54.92
2023-03-11T21:36:21.057Z,55.03
2023-03-11T21:39:23.505Z,55.62
2023-03-11T21:42:29.276Z,55.71
2023-03-11T21:45:31.320Z,56.01
2023-03-11T21:48:33.330Z,56.19
2023-03-11T21:51:35.709Z,56.51
2023-03-11T21:54:37.510Z,56.29
2023-03-11T21:57:40.929Z,56.31
2023-03-11T22:00:43.076Z,56.41
2023-03-11T22:03:44.839Z,56.05
2023-03-11T22:06:46.811Z,56.20
2023-03-11T22:09:48.642Z,56.42
2023-03-11T22:12:51.826Z,56.33
2023-03-11T22:15:53.663Z,56.12
2023-03-11T22:18:55.563Z,56.51
2023-03-11T22:21:57.378Z,56.62
2023-03-11T22:24:59.130Z,56.82
2023-03-11T22:28:02.879Z,56.87
2023-03-11T22:31:08.209Z,57.26
2023-03-11T22:34:09.937Z,57.19
2023-03-11T22:37:11.726Z,57.26
2023-03-11T22:40:13.509Z,57.26
2023-03-11T22:43:16.688Z,57.92
2023-03-11T22:46:18.433Z,58.15
2023-03-11T22:49:20.179Z,58.38
2023-03-11T22:52:21.954Z,57.98
2023-03-11T22:55:23.654Z,57.61
2023-03-11T22:58:26.876Z,57.65
2023-03-11T23:01:28.609Z,57.59
2023-03-11T23:04:30.554Z,58.23
2023-03-11T23:07:32.248Z,58.44
2023-03-11T23:10:33.965Z,58.22
2023-03-11T23:13:37.124Z,58.12
2023-03-11T23:16:38.847Z,58.20
2023-03-11T23:19:40.527Z,58.27
2023-03-11T23:22:42.869Z,58.96
2023-03-11T23:25:44.620Z,58.64
2023-03-11T23:28:48.078Z,58.80
2023-03-11T23:31:49.729Z,57.60
2023-03-11T23:34:51.415Z,57.13
2023-03-11T23:37:53.370Z,57.23
2023-03-11T23:40:55.561Z,57.12
2023-03-11T23:43:58.647Z,57.65
2023-03-11T23:47:00.380Z,57.08
2023-03-11T23:50:02.305Z,56.71
2023-03-11T23:53:04.163Z,56.46
2023-03-11T23:56:09.433Z,56.05
2023-03-11T23:59:12.528Z,56.83
